»·PEaware :: WAT175 KMDW-KATL

WAT175 :: KMDW-KATL

FLIGHT INFORMATION

Flight Status: Arrived
Operator:
Walker Air Transport
More flights by this operator :: More flights under this callsign
Pilot: Michael C. (27126)
Aircraft: BOEING 737-800
(B738)
More flights by this aircraft type
Origin: KMDW Chicago-Midway
United States
Destination: KATL Hartsfield-Jackson Atlanta
United States
More flights between these airports :: More routes between these airports
Route: CMSKY CARYN CYBIL PXV BNA NEWBB IHAVE MTHEW CHPPR1
File this flight plan on PilotEdge
Remarks: RMK / SIMBRIEF
Altitude:
(Current/Filed)
35,000ft
Speed:
(Current/Filed)
457kts
Departed: 16-Oct-20 04:37 PM
Arrived: 16-Oct-20 05:56 PM
Distance/Time
Traveled:
514nm/1:19
Distance/Time
To Go:
Arrived

Flight Plot

Page will automatically refresh every two minutes.

Flight plan parsing failed; only flown route is shown


Map Options




Map Legend


Flown Route
Filed Route
Departure Airport
Arrival Airport
Navaid (VOR, NDB)
Fix

Horizontal Profiles

Position Reports

Time Latitude Longitude Heading Altitude Ground
Speed
16-Oct-20 16:11 41.787003 -87.745940 135 630ft 0kts
16-Oct-20 16:12 41.787003 -87.745940 135 630ft 0kts
16-Oct-20 16:13 41.787003 -87.745940 135 630ft 0kts
16-Oct-20 16:14 41.787003 -87.745940 135 630ft 0kts
16-Oct-20 16:15 41.787003 -87.745940 135 630ft 0kts
16-Oct-20 16:16 41.787003 -87.745940 135 630ft 0kts
16-Oct-20 16:17 41.787003 -87.745940 135 630ft 0kts
16-Oct-20 16:18 41.787003 -87.745940 135 630ft 0kts
16-Oct-20 16:19 41.787003 -87.745940 135 630ft 0kts
16-Oct-20 16:20 41.787003 -87.745940 135 630ft 0kts
16-Oct-20 16:21 41.787003 -87.745940 135 630ft 0kts
16-Oct-20 16:22 41.787003 -87.745940 135 630ft 0kts
16-Oct-20 16:23 41.787003 -87.745940 135 630ft 0kts
16-Oct-20 16:24 41.787003 -87.745940 135 630ft 0kts
16-Oct-20 16:25 41.787003 -87.745940 135 630ft 0kts
16-Oct-20 16:26 41.787003 -87.745940 135 630ft 0kts
16-Oct-20 16:27 41.787003 -87.745940 135 630ft 0kts
16-Oct-20 16:28 41.787003 -87.745940 135 630ft 0kts
16-Oct-20 16:29 41.787003 -87.745940 135 630ft 0kts
16-Oct-20 16:30 41.787203 -87.746201 135 630ft 1kts
16-Oct-20 16:31 41.787432 -87.746720 69 630ft 2kts
16-Oct-20 16:32 41.787328 -87.746897 41 630ft 0kts
16-Oct-20 16:33 41.787328 -87.746897 41 630ft 0kts
16-Oct-20 16:34 41.789442 -87.744725 41 630ft 22kts
16-Oct-20 16:35 41.791741 -87.743312 238 630ft 15kts
16-Oct-20 16:36 41.789455 -87.746256 223 630ft 84kts
16-Oct-20 16:37 41.724657 -87.789323 207 2468ft 288kts
16-Oct-20 16:38 41.588242 -87.821082 186 4426ft 279kts
16-Oct-20 16:39 41.443814 -87.867108 198 11222ft 286kts
16-Oct-20 16:40 41.316446 -87.886344 189 12950ft 313kts
16-Oct-20 16:41 41.224165 -87.892081 184 15377ft 344kts
16-Oct-20 16:42 41.126108 -87.888810 185 17891ft 360kts
16-Oct-20 16:43 41.014043 -87.885467 184 17616ft 412kts
16-Oct-20 16:45 40.905268 -87.882038 186 17825ft 401kts
16-Oct-20 16:46 40.790293 -87.878641 185 18031ft 420kts
16-Oct-20 16:47 40.672780 -87.875079 186 18909ft 426kts
16-Oct-20 16:48 40.550959 -87.862150 175 20872ft 454kts
16-Oct-20 16:49 40.424416 -87.827554 175 22611ft 472kts
16-Oct-20 16:50 40.294592 -87.792047 176 23856ft 485kts
16-Oct-20 16:51 40.160076 -87.755343 176 25406ft 501kts
16-Oct-20 16:52 40.022236 -87.717807 176 26926ft 511kts
16-Oct-20 16:53 39.880631 -87.679318 176 28284ft 523kts
16-Oct-20 16:54 39.736853 -87.640344 176 29602ft 531kts
16-Oct-20 16:55 39.592797 -87.601126 177 31712ft 516kts
16-Oct-20 16:56 39.474004 -87.568827 177 33096ft 512kts
16-Oct-20 16:57 39.333258 -87.531073 177 34274ft 517kts
16-Oct-20 16:58 39.194143 -87.477415 168 35726ft 524kts
16-Oct-20 16:59 39.055573 -87.422944 172 36885ft 518kts
16-Oct-20 17:00 38.914368 -87.376132 175 37246ft 534kts
16-Oct-20 17:01 38.767850 -87.327194 175 37246ft 548kts
16-Oct-20 17:01 38.645134 -87.284894 175 37245ft 550kts
16-Oct-20 17:03 38.472224 -87.224682 174 37250ft 551kts
16-Oct-20 17:03 38.349513 -87.181983 175 37269ft 548kts
16-Oct-20 17:04 38.201475 -87.130494 175 37273ft 548kts
16-Oct-20 17:05 38.054938 -87.079715 175 37276ft 544kts
16-Oct-20 17:06 37.909648 -87.029480 175 37280ft 538kts
16-Oct-20 17:07 37.765324 -86.979756 176 37282ft 538kts
16-Oct-20 17:08 37.622195 -86.930340 176 37283ft 529kts
16-Oct-20 17:09 37.478532 -86.880976 176 37281ft 531kts
16-Oct-20 17:10 37.337303 -86.832595 176 37290ft 522kts
16-Oct-20 17:11 37.196435 -86.784360 176 37294ft 524kts
16-Oct-20 17:12 37.056448 -86.736456 176 37303ft 517kts
16-Oct-20 17:13 36.921245 -86.690258 176 37302ft 495kts
16-Oct-20 17:14 36.786987 -86.644605 176 37301ft 501kts
16-Oct-20 17:15 36.653180 -86.599117 176 37302ft 499kts
16-Oct-20 17:16 36.519553 -86.553836 176 37318ft 497kts
16-Oct-20 17:17 36.385696 -86.508402 176 37324ft 497kts
16-Oct-20 17:18 36.250903 -86.462752 176 37321ft 497kts
16-Oct-20 17:19 36.116579 -86.417458 176 37318ft 501kts
16-Oct-20 17:20 35.981201 -86.371684 176 37291ft 497kts
16-Oct-20 17:21 35.848845 -86.327209 177 37294ft 499kts
16-Oct-20 17:22 35.713891 -86.281712 177 37293ft 498kts
16-Oct-20 17:23 35.579759 -86.236762 177 37300ft 501kts
16-Oct-20 17:24 35.446367 -86.185239 160 37298ft 521kts
16-Oct-20 17:25 35.329462 -86.084405 152 37307ft 506kts
16-Oct-20 17:26 35.215849 -85.977935 151 37261ft 520kts
16-Oct-20 17:27 35.099065 -85.867226 150 34233ft 537kts
16-Oct-20 17:28 34.980717 -85.754517 148 31090ft 535kts
16-Oct-20 17:29 34.866130 -85.645560 147 28977ft 509kts
16-Oct-20 17:30 34.756668 -85.542034 146 26751ft 489kts
16-Oct-20 17:31 34.653419 -85.444919 146 24598ft 459kts
16-Oct-20 17:32 34.554146 -85.351484 146 22464ft 436kts
16-Oct-20 17:33 34.461249 -85.264173 146 20466ft 426kts
16-Oct-20 17:34 34.369418 -85.178200 146 19078ft 419kts
16-Oct-20 17:35 34.270456 -85.120352 149 17856ft 401kts
16-Oct-20 17:36 34.187918 -85.027138 136 14258ft 396kts
16-Oct-20 17:37 34.112036 -84.937932 147 13025ft 355kts
16-Oct-20 17:38 34.033712 -84.864422 147 13028ft 357kts
16-Oct-20 17:39 33.954317 -84.792847 157 13028ft 350kts
16-Oct-20 17:40 33.862188 -84.744870 163 13024ft 363kts
16-Oct-20 17:41 33.767880 -84.698235 163 13010ft 366kts
16-Oct-20 17:42 33.673372 -84.651629 163 13008ft 366kts
16-Oct-20 17:43 33.582349 -84.602752 148 13004ft 364kts
16-Oct-20 17:44 33.537419 -84.495561 90 10768ft 362kts
16-Oct-20 17:45 33.536848 -84.378675 87 8066ft 340kts
16-Oct-20 17:46 33.536913 -84.272451 87 7215ft 292kts
16-Oct-20 17:47 33.538508 -84.180203 66 6224ft 259kts
16-Oct-20 17:48 33.593829 -84.142862 12 4984ft 224kts
16-Oct-20 17:49 33.633685 -84.175904 283 5015ft 171kts
16-Oct-20 17:50 33.633832 -84.227863 272 4470ft 157kts
16-Oct-20 17:51 33.634113 -84.279537 276 3175ft 150kts
16-Oct-20 17:52 33.634434 -84.329972 271 2489ft 155kts
16-Oct-20 17:53 33.634524 -84.381185 273 1459ft 155kts
16-Oct-20 17:54 33.634761 -84.426289 270 976ft 73kts
16-Oct-20 17:55 33.636150 -84.433029 342 975ft 6kts
16-Oct-20 17:56 33.638305 -84.433091 91 975ft 0kts
16-Oct-20 17:57 33.638305 -84.433091 91 975ft 0kts
16-Oct-20 17:58 33.634185 -84.342268 273 2267ft 155kts
16-Oct-20 17:59 33.634631 -84.392769 273 1299ft 153kts

Navigation Log

Ident Type
Flight plan parsing failed, navigation log unavailable